Time;durP1;ratioP1;P1;durP2;ratioP2;P2;SDS_P1;SDS_P2;PMS_P1;PMS_P2;Temp;Humidity;BMP_temperature;BMP_pressure;BME280_temperature;BME280_humidity;BME280_pressure;Samples;Min_cycle;Max_cycle;Signal;HPM_P1;HPM_P2
2023/06/26 00:00:28;;;;;;;13.80;12.00;;;;;;;14.82;83.97;97952.58;106676;1276;26273;-76
2023/06/26 00:03:15;;;;;;;15.30;12.60;;;;;;;14.77;83.81;97952.69;106675;1276;22655;-76
2023/06/26 00:05:43;;;;;;;17.40;13.70;;;;;;;14.72;84.99;97948.68;106757;1276;22660;-76
2023/06/26 00:08:09;;;;;;;16.40;14.00;;;;;;;14.67;85.22;97949.85;106646;1276;22524;-76
2023/06/26 00:10:36;;;;;;;17.20;13.40;;;;;;;14.61;85.99;97946.52;106640;1276;22839;-76
2023/06/26 00:13:03;;;;;;;18.80;13.80;;;;;;;14.56;86.31;97946.44;106897;1276;22554;-76
2023/06/26 00:15:31;;;;;;;15.50;13.10;;;;;;;14.50;86.81;97947.64;106915;1276;25328;-77
2023/06/26 00:17:59;;;;;;;16.20;13.50;;;;;;;14.43;86.69;97946.89;106650;1277;22521;-77
2023/06/26 00:20:25;;;;;;;18.60;13.50;;;;;;;14.38;87.09;97946.04;106667;1276;22538;-76
2023/06/26 00:22:53;;;;;;;14.90;12.40;;;;;;;14.32;87.49;97945.41;106633;1276;24356;-76
2023/06/26 00:25:20;;;;;;;14.00;12.50;;;;;;;14.28;86.78;97945.80;107001;1276;25360;-76
2023/06/26 00:27:47;;;;;;;17.50;13.90;;;;;;;14.26;86.52;97943.82;106820;1276;24473;-76
2023/06/26 00:30:13;;;;;;;16.40;13.00;;;;;;;14.20;86.84;97945.35;106662;1276;22649;-77
2023/06/26 00:32:40;;;;;;;17.50;13.50;;;;;;;14.15;87.12;97946.73;106824;1276;25505;-77
2023/06/26 00:35:07;;;;;;;16.00;12.50;;;;;;;14.06;86.81;97950.09;106920;1276;25316;-76
2023/06/26 00:37:33;;;;;;;16.20;13.00;;;;;;;14.00;87.11;97949.81;106678;1276;22523;-75
2023/06/26 00:40:00;;;;;;;16.90;13.80;;;;;;;13.91;87.09;97949.77;106642;1276;22564;-76
2023/06/26 00:42:27;;;;;;;15.90;14.20;;;;;;;13.82;86.79;97949.05;106529;1276;24263;-76
2023/06/26 00:44:54;;;;;;;18.70;12.70;;;;;;;13.79;86.32;97950.74;106495;1276;22554;-77
2023/06/26 00:47:20;;;;;;;20.10;14.30;;;;;;;13.75;87.55;97946.47;106903;1276;22588;-77
2023/06/26 00:49:47;;;;;;;19.50;13.60;;;;;;;13.71;87.11;97946.30;106695;1276;23049;-77
2023/06/26 00:52:14;;;;;;;14.50;11.70;;;;;;;13.64;86.44;97948.38;106750;1276;25472;-76
2023/06/26 00:54:41;;;;;;;16.50;12.50;;;;;;;13.62;86.13;97944.64;106927;1276;24232;-76
2023/06/26 00:57:09;;;;;;;18.00;13.20;;;;;;;13.63;86.32;97944.16;106955;1276;25393;-76
2023/06/26 00:59:36;;;;;;;12.80;11.30;;;;;;;13.64;86.18;97941.42;106634;1276;24122;-76
2023/06/26 01:02:03;;;;;;;13.60;13.80;;;;;;;13.66;85.82;97942.29;106648;1276;22599;-76
2023/06/26 01:04:32;;;;;;;15.60;11.90;;;;;;;13.63;85.62;97943.90;106705;1276;24308;-76
2023/06/26 01:07:01;;;;;;;16.10;13.40;;;;;;;13.59;85.69;97942.95;106729;1276;22950;-76
2023/06/26 01:09:29;;;;;;;13.70;12.00;;;;;;;13.55;85.50;97945.44;106641;1276;25451;-77
2023/06/26 01:11:56;;;;;;;15.20;11.70;;;;;;;13.49;85.53;97941.26;106665;1276;22531;-76
2023/06/26 01:14:23;;;;;;;16.90;12.30;;;;;;;13.41;85.40;97943.14;106685;1276;22527;-77
2023/06/26 01:16:51;;;;;;;17.10;13.00;;;;;;;13.35;85.74;97937.98;106459;1276;22517;-76
2023/06/26 01:19:30;;;;;;;14.80;11.90;;;;;;;13.27;85.48;97939.30;106586;1276;25498;-77
2023/06/26 01:22:20;;;;;;;13.70;11.30;;;;;;;13.18;85.52;97939.40;106562;1277;25658;-77
2023/06/26 01:25:18;;;;;;;13.10;11.80;;;;;;;13.05;86.91;97936.31;106584;1276;22544;-77
2023/06/26 01:27:51;;;;;;;13.80;11.20;;;;;;;12.93;86.70;97935.68;106753;1277;22528;-77
2023/06/26 01:30:19;;;;;;;14.40;11.60;;;;;;;12.83;86.90;97933.47;106685;1276;22538;-77
2023/06/26 01:32:47;;;;;;;13.80;10.80;;;;;;;12.74;87.04;97934.35;106698;1276;22554;-75
2023/06/26 01:35:15;;;;;;;14.90;10.10;;;;;;;12.63;88.37;97933.73;106820;1276;25526;-76
2023/06/26 01:37:42;;;;;;;15.50;12.30;;;;;;;12.53;89.25;97932.02;106959;1276;24245;-76
2023/06/26 01:40:10;;;;;;;14.60;13.00;;;;;;;12.45;89.28;97931.48;106524;1277;22527;-76
2023/06/26 01:42:36;;;;;;;16.00;11.20;;;;;;;12.36;90.16;97932.64;106873;1277;22664;-76
2023/06/26 01:45:17;;;;;;;13.10;11.80;;;;;;;12.28;90.52;97929.91;106975;1277;25168;-76
2023/06/26 01:47:49;;;;;;;14.90;11.40;;;;;;;12.23;90.95;97930.61;106985;1276;22550;-76
2023/06/26 01:50:24;;;;;;;12.90;11.40;;;;;;;12.18;91.31;97931.80;106940;1267;22544;-77
2023/06/26 01:53:12;;;;;;;15.90;12.70;;;;;;;12.11;91.82;97926.95;107024;1277;22617;-77
2023/06/26 01:56:02;;;;;;;12.90;11.60;;;;;;;12.03;91.22;97924.73;107067;1276;26669;-77
2023/06/26 01:58:29;;;;;;;12.90;11.30;;;;;;;11.99;91.00;97923.76;107016;1277;25363;-77
2023/06/26 02:00:56;;;;;;;11.80;10.60;;;;;;;11.93;91.29;97924.45;106838;1266;22621;-76
2023/06/26 02:03:24;;;;;;;12.00;10.80;;;;;;;11.91;92.76;97921.86;106933;1276;22527;-76
2023/06/26 02:05:51;;;;;;;15.20;11.70;;;;;;;11.87;93.39;97920.48;106718;1277;26583;-76
2023/06/26 02:08:18;;;;;;;11.30;10.10;;;;;;;11.84;93.68;97920.27;106963;1266;25380;-77
2023/06/26 02:10:49;;;;;;;13.50;10.50;;;;;;;11.80;93.90;97922.99;106963;1276;25332;-76
2023/06/26 02:13:16;;;;;;;12.90;10.30;;;;;;;11.77;93.89;97920.89;106882;1276;22554;-75
2023/06/26 02:15:43;;;;;;;10.90;9.80;;;;;;;11.71;94.37;97923.58;106710;1276;25539;-76
2023/06/26 02:18:10;;;;;;;13.40;10.10;;;;;;;11.68;94.98;97920.84;106696;1276;22537;-76
2023/06/26 02:20:36;;;;;;;14.60;9.90;;;;;;;11.65;94.77;97916.48;106746;1276;22578;-77
2023/06/26 02:23:03;;;;;;;11.00;9.90;;;;;;;11.62;94.17;97920.92;106753;1276;25312;-78
2023/06/26 02:25:30;;;;;;;13.80;10.20;;;;;;;11.62;93.46;97922.38;107016;1276;22548;-76
2023/06/26 02:27:56;;;;;;;11.60;10.40;;;;;;;11.65;93.16;97921.94;106883;1276;25362;-76
2023/06/26 02:30:23;;;;;;;14.20;9.90;;;;;;;11.66;94.36;97926.61;106730;1276;25481;-77
2023/06/26 02:32:50;;;;;;;10.30;9.30;;;;;;;11.67;93.75;97924.17;106706;1276;22636;-77
2023/06/26 02:35:18;;;;;;;14.30;10.60;;;;;;;11.68;94.16;97926.69;106905;1276;25332;-77
2023/06/26 02:37:44;;;;;;;10.80;9.50;;;;;;;11.65;94.37;97926.38;106734;1256;22519;-79
2023/06/26 02:40:11;;;;;;;11.80;9.50;;;;;;;11.63;94.52;97926.38;106748;1276;24301;-77
2023/06/26 02:42:38;;;;;;;12.00;10.40;;;;;;;11.65;93.79;97926.73;106755;1276;22551;-76
2023/06/26 02:45:05;;;;;;;10.60;9.50;;;;;;;11.68;93.44;97927.50;106733;1266;25297;-76
2023/06/26 02:47:32;;;;;;;13.20;10.60;;;;;;;11.71;93.57;97928.79;106746;1276;25380;-75
2023/06/26 02:49:59;;;;;;;11.30;9.90;;;;;;;11.65;94.02;97934.63;106474;1276;22525;-76
2023/06/26 02:52:29;;;;;;;12.10;9.00;;;;;;;11.54;93.89;97933.52;106706;1276;22538;-76
2023/06/26 02:54:56;;;;;;;11.20;10.00;;;;;;;11.45;93.92;97936.43;106813;1276;25402;-77
2023/06/26 02:57:23;;;;;;;10.70;9.60;;;;;;;11.45;93.78;97937.92;107006;1276;22536;-76
2023/06/26 02:59:50;;;;;;;12.10;9.30;;;;;;;11.50;93.76;97934.89;106578;1276;22544;-77
2023/06/26 03:02:16;;;;;;;11.90;10.30;;;;;;;11.51;95.18;97936.83;106569;1276;22538;-76
2023/06/26 03:04:44;;;;;;;15.50;10.30;;;;;;;11.46;94.41;97933.64;106716;1269;25275;-77
2023/06/26 03:07:13;;;;;;;12.30;10.60;;;;;;;11.43;94.95;97932.95;106922;1276;23902;-76
2023/06/26 03:09:40;;;;;;;12.00;10.00;;;;;;;11.40;95.53;97932.10;106694;1276;23657;-76
2023/06/26 03:12:09;;;;;;;11.00;9.90;;;;;;;11.41;96.30;97929.17;106996;1276;25363;-78
2023/06/26 03:14:36;;;;;;;12.30;9.40;;;;;;;11.40;96.10;97927.89;107020;1276;22570;-77
2023/06/26 03:17:03;;;;;;;12.10;9.60;;;;;;;11.42;96.53;97929.95;106886;1267;24383;-76
2023/06/26 03:19:30;;;;;;;10.70;8.90;;;;;;;11.44;96.52;97929.48;106749;1276;23351;-76
2023/06/26 03:22:33;;;;;;;11.40;10.10;;;;;;;11.46;96.56;97927.61;106114;1277;22549;-76
2023/06/26 03:25:01;;;;;;;12.70;10.40;;;;;;;11.48;96.79;97930.27;107000;1276;22543;-76
2023/06/26 03:27:30;;;;;;;11.90;10.20;;;;;;;11.49;97.08;97929.26;106751;1276;22527;-77
2023/06/26 03:29:56;;;;;;;12.20;10.30;;;;;;;11.53;97.19;97933.77;106903;1276;25493;-75
2023/06/26 03:32:23;;;;;;;13.20;9.90;;;;;;;11.58;97.27;97934.55;107083;1276;26587;-76
2023/06/26 03:34:50;;;;;;;15.50;10.10;;;;;;;11.66;97.28;97930.88;106764;1276;22667;-76
2023/06/26 03:37:17;;;;;;;11.70;10.00;;;;;;;11.73;97.26;97932.77;106971;1277;24187;-76
2023/06/26 03:39:44;;;;;;;14.60;9.80;;;;;;;11.79;97.54;97932.15;106717;1276;22546;-76
2023/06/26 03:42:10;;;;;;;11.50;10.00;;;;;;;11.83;97.87;97935.30;106475;1277;22569;-76
2023/06/26 03:44:37;;;;;;;12.70;11.40;;;;;;;11.87;97.88;97934.14;106740;1276;22540;-75
2023/06/26 03:47:05;;;;;;;12.30;10.70;;;;;;;11.93;97.71;97935.25;106961;1276;22574;-75
2023/06/26 03:49:31;;;;;;;16.90;12.90;;;;;;;12.07;97.67;97938.34;106754;1276;25325;-76
2023/06/26 03:51:58;;;;;;;15.00;13.20;;;;;;;12.27;97.90;97935.73;106744;1277;22543;-77
2023/06/26 03:54:25;;;;;;;14.90;12.90;;;;;;;12.49;97.67;97939.07;106740;1276;25315;-76
2023/06/26 03:56:52;;;;;;;12.10;10.70;;;;;;;12.68;97.25;97942.24;106970;1276;23874;-76
2023/06/26 03:59:21;;;;;;;11.80;10.60;;;;;;;12.86;97.29;97940.96;106470;1276;23125;-76
2023/06/26 04:01:48;;;;;;;15.40;13.40;;;;;;;12.97;97.05;97945.13;106450;1266;22538;-75
2023/06/26 04:04:16;;;;;;;19.30;14.80;;;;;;;13.11;97.16;97944.63;106545;1277;24376;-76
2023/06/26 04:06:43;;;;;;;16.40;14.40;;;;;;;13.26;97.42;97940.62;106743;1276;22528;-76
2023/06/26 04:09:10;;;;;;;19.10;13.20;;;;;;;13.42;97.21;97944.65;106543;1277;22534;-76
2023/06/26 04:11:36;;;;;;;15.00;13.60;;;;;;;13.59;96.95;97945.21;106535;1277;23927;-75
2023/06/26 04:14:03;;;;;;;19.10;15.20;;;;;;;13.77;96.91;97941.44;106743;1277;25546;-77
2023/06/26 04:16:30;;;;;;;18.70;16.70;;;;;;;13.91;96.76;97943.64;106733;1277;22639;-78
2023/06/26 04:18:57;;;;;;;18.90;16.90;;;;;;;14.06;96.91;97944.14;106753;1276;23477;-76
2023/06/26 04:21:27;;;;;;;17.90;15.70;;;;;;;14.18;96.80;97941.41;106755;1277;22633;-76
2023/06/26 04:23:53;;;;;;;20.60;14.40;;;;;;;14.31;96.61;97935.62;106773;1277;25811;-75
2023/06/26 04:26:20;;;;;;;20.20;17.20;;;;;;;14.46;96.49;97937.13;106776;1266;22530;-77
2023/06/26 04:28:47;;;;;;;17.90;16.10;;;;;;;14.62;96.32;97932.39;106797;1277;25664;-77
2023/06/26 04:31:13;;;;;;;16.80;15.10;;;;;;;14.77;96.07;97935.67;106824;1277;22526;-76
2023/06/26 04:33:40;;;;;;;17.00;15.30;;;;;;;14.87;96.13;97934.64;107029;1276;24219;-76
2023/06/26 04:36:11;;;;;;;17.10;15.30;;;;;;;14.95;96.04;97931.42;107033;1277;25472;-76
2023/06/26 04:38:37;;;;;;;17.30;15.50;;;;;;;15.06;95.79;97931.75;106870;1276;22541;-77
2023/06/26 04:41:04;;;;;;;17.10;15.20;;;;;;;15.16;95.69;97928.64;106976;1277;22541;-78
2023/06/26 04:43:30;;;;;;;16.60;14.90;;;;;;;15.27;95.54;97928.15;106660;1276;174610;-78
2023/06/26 04:45:57;;;;;;;17.80;16.10;;;;;;;15.41;95.52;97926.66;106773;1277;24358;-76
2023/06/26 04:48:24;;;;;;;18.70;15.70;;;;;;;15.52;95.31;97923.30;106764;1276;22537;-78
2023/06/26 04:50:53;;;;;;;18.00;16.20;;;;;;;15.62;95.25;97925.31;106852;1276;22563;-78
2023/06/26 04:53:21;;;;;;;17.70;16.00;;;;;;;15.71;94.96;97923.65;107077;1277;22776;-77
2023/06/26 04:55:49;;;;;;;19.30;15.60;;;;;;;15.80;94.86;97928.69;106890;1277;22659;-77
2023/06/26 04:58:16;;;;;;;18.30;16.40;;;;;;;15.88;94.75;97924.11;107042;1276;22526;-77
2023/06/26 05:00:43;;;;;;;21.30;15.80;;;;;;;15.97;94.41;97928.13;107057;1277;25485;-77
2023/06/26 05:03:11;;;;;;;17.40;15.80;;;;;;;16.05;94.22;97930.17;107067;1277;22596;-76
2023/06/26 05:05:39;;;;;;;17.70;15.80;;;;;;;16.18;94.03;97931.16;106769;1277;25299;-75
2023/06/26 05:08:21;;;;;;;16.90;15.20;;;;;;;16.30;93.97;97930.11;106715;1277;22558;-76
2023/06/26 05:10:49;;;;;;;20.80;16.70;;;;;;;16.42;93.98;97936.11;106807;1277;22542;-76
2023/06/26 05:13:17;;;;;;;18.60;14.90;;;;;;;16.51;93.38;97938.41;106752;1276;22551;-77
2023/06/26 05:15:44;;;;;;;17.00;15.10;;;;;;;16.55;92.94;97938.98;106766;1277;25265;-77
2023/06/26 05:18:11;;;;;;;17.90;15.00;;;;;;;16.61;91.82;97940.17;106774;1277;25233;-76
2023/06/26 05:20:38;;;;;;;19.30;15.40;;;;;;;16.69;91.48;97938.20;106768;1277;22583;-76
2023/06/26 05:23:05;;;;;;;21.90;15.90;;;;;;;16.77;91.75;97934.30;106796;1277;25147;-76
2023/06/26 05:25:36;;;;;;;17.90;15.20;;;;;;;16.88;91.42;97931.45;106763;1277;25396;-76
2023/06/26 05:28:08;;;;;;;21.80;17.00;;;;;;;16.96;90.38;97930.95;106406;1277;25428;-76
2023/06/26 05:30:35;;;;;;;21.10;17.20;;;;;;;16.97;90.10;97934.64;106765;1277;22526;-75
2023/06/26 05:33:03;;;;;;;18.00;15.60;;;;;;;17.03;89.95;97934.98;106771;1276;25277;-76
2023/06/26 05:35:30;;;;;;;17.40;15.60;;;;;;;17.12;89.12;97938.52;106798;1277;25412;-77
2023/06/26 05:37:58;;;;;;;20.30;17.40;;;;;;;17.20;88.73;97940.20;106733;1277;22542;-76
2023/06/26 05:40:25;;;;;;;21.40;17.30;;;;;;;17.30;88.38;97935.27;106775;1277;23928;-75
2023/06/26 05:42:52;;;;;;;18.00;16.10;;;;;;;17.38;88.61;97936.46;106793;1276;22639;-78
2023/06/26 05:45:19;;;;;;;19.40;17.50;;;;;;;17.51;88.12;97935.55;106808;1277;24231;-77
2023/06/26 05:47:46;;;;;;;18.90;16.70;;;;;;;17.62;88.66;97935.63;106823;1277;22574;-77
2023/06/26 05:50:13;;;;;;;18.90;15.90;;;;;;;17.73;88.43;97935.73;106922;1277;22540;-77
2023/06/26 05:52:40;;;;;;;16.60;14.70;;;;;;;17.85;87.87;97932.65;107071;1277;24083;-77
2023/06/26 05:55:08;;;;;;;14.90;13.10;;;;;;;17.99;88.08;97928.86;106992;1277;22544;-77
2023/06/26 05:57:37;;;;;;;18.10;13.50;;;;;;;18.13;86.68;97929.95;107128;1276;22551;-77
2023/06/26 06:00:09;;;;;;;14.50;12.10;;;;;;;18.25;85.58;97924.98;107085;1276;22537;-76
2023/06/26 06:02:41;;;;;;;18.00;13.70;;;;;;;18.33;85.69;97925.81;106777;1276;24410;-76
2023/06/26 06:05:08;;;;;;;15.00;13.50;;;;;;;18.42;84.43;97926.11;106754;1256;22535;-77
2023/06/26 06:07:36;;;;;;;17.40;13.00;;;;;;;18.48;83.24;97926.77;106771;1276;22837;-76
2023/06/26 06:10:03;;;;;;;16.10;11.10;;;;;;;18.55;82.68;97924.98;106786;1276;24206;-77
2023/06/26 06:12:30;;;;;;;14.70;11.20;;;;;;;18.65;82.02;97925.08;106798;1277;22593;-77
2023/06/26 06:14:57;;;;;;;12.60;11.40;;;;;;;18.76;81.68;97925.61;106912;1276;23917;-76
2023/06/26 06:17:24;;;;;;;15.80;11.20;;;;;;;18.83;80.21;97923.48;106792;1277;25230;-77
2023/06/26 06:19:50;;;;;;;14.90;13.40;;;;;;;18.92;80.71;97923.21;106800;1277;23275;-77
2023/06/26 06:22:17;;;;;;;15.00;12.60;;;;;;;19.03;81.13;97924.35;106935;1276;22569;-77
2023/06/26 06:24:44;;;;;;;13.50;11.40;;;;;;;19.14;78.99;97928.65;106802;1276;22636;-77
2023/06/26 06:27:11;;;;;;;14.70;11.30;;;;;;;19.21;79.62;97926.02;106803;1277;22546;-76
2023/06/26 06:29:37;;;;;;;15.70;12.20;;;;;;;19.37;80.30;97926.67;106558;1277;22534;-76
2023/06/26 06:32:04;;;;;;;13.20;11.90;;;;;;;19.50;80.07;97922.77;106777;1259;23482;-76
2023/06/26 06:34:31;;;;;;;14.10;12.60;;;;;;;19.62;78.36;97927.17;107143;1276;22585;-76
2023/06/26 06:36:58;;;;;;;16.10;11.80;;;;;;;19.70;79.33;97925.64;107087;1276;22661;-77
2023/06/26 06:39:24;;;;;;;15.60;12.50;;;;;;;19.84;79.22;97924.99;106807;1276;22688;-77
2023/06/26 06:41:51;;;;;;;15.60;12.70;;;;;;;19.95;78.77;97929.20;106800;1276;22541;-77
2023/06/26 06:44:17;;;;;;;17.30;12.40;;;;;;;20.04;78.05;97927.27;106794;1276;25242;-77
2023/06/26 06:46:44;;;;;;;13.30;10.90;;;;;;;20.10;76.93;97925.92;106755;1276;22648;-76
2023/06/26 06:49:11;;;;;;;14.60;12.70;;;;;;;20.22;76.59;97924.66;107106;1276;25837;-77
2023/06/26 06:51:37;;;;;;;15.80;13.90;;;;;;;20.31;75.01;97926.95;106757;1276;22538;-77
2023/06/26 06:54:04;;;;;;;15.20;13.40;;;;;;;20.40;75.14;97925.94;106762;1276;25291;-77
2023/06/26 06:56:31;;;;;;;17.10;12.50;;;;;;;20.51;75.87;97921.75;106769;1276;24337;-77
2023/06/26 06:58:58;;;;;;;11.10;9.70;;;;;;;20.63;75.79;97924.88;106780;1276;23571;-76
2023/06/26 07:01:24;;;;;;;12.70;9.70;;;;;;;20.74;72.90;97927.75;106756;1277;22635;-76
2023/06/26 07:03:51;;;;;;;13.60;8.40;;;;;;;20.82;72.21;97926.70;106801;1277;24325;-77
2023/06/26 07:06:18;;;;;;;10.70;9.00;;;;;;;20.85;69.93;97925.52;106767;1276;26528;-77
2023/06/26 07:08:45;;;;;;;10.90;9.00;;;;;;;20.92;69.72;97926.02;106776;1263;25322;-77
2023/06/26 07:11:11;;;;;;;14.70;9.40;;;;;;;21.04;71.97;97927.06;106783;1276;24260;-77
2023/06/26 07:13:38;;;;;;;11.20;8.50;;;;;;;21.21;71.54;97922.32;106946;1276;25353;-76
2023/06/26 07:16:04;;;;;;;13.80;9.00;;;;;;;21.36;72.13;97921.14;106800;1276;22616;-77
2023/06/26 07:18:31;;;;;;;14.60;9.40;;;;;;;21.48;71.05;97918.82;106770;1276;24373;-77
2023/06/26 07:20:58;;;;;;;14.30;9.70;;;;;;;21.57;70.44;97919.41;107060;1277;22543;-76
2023/06/26 07:23:24;;;;;;;11.40;9.00;;;;;;;21.63;69.23;97917.48;106803;1276;24218;-76
2023/06/26 07:25:51;;;;;;;12.10;7.60;;;;;;;21.67;65.20;97918.86;106765;1276;26016;-77
2023/06/26 07:28:17;;;;;;;9.20;7.60;;;;;;;21.65;65.63;97919.23;106778;1276;25534;-77
2023/06/26 07:30:44;;;;;;;9.60;8.20;;;;;;;21.67;66.00;97916.73;106770;1276;23058;-76
2023/06/26 07:33:11;;;;;;;10.20;7.50;;;;;;;21.75;67.62;97913.86;106761;1276;26135;-77
2023/06/26 07:35:38;;;;;;;11.30;7.70;;;;;;;21.91;67.81;97912.49;106782;1277;24187;-79
2023/06/26 07:38:04;;;;;;;9.20;8.30;;;;;;;22.08;66.47;97911.36;106798;1277;22548;-78
2023/06/26 07:40:31;;;;;;;9.70;7.10;;;;;;;22.19;65.69;97915.59;107074;1277;22946;-77
2023/06/26 07:42:58;;;;;;;10.10;6.90;;;;;;;22.29;63.55;97916.50;106835;1277;23954;-76
2023/06/26 07:45:25;;;;;;;13.00;7.20;;;;;;;22.36;64.19;97908.40;106791;1277;24347;-76
2023/06/26 07:47:53;;;;;;;8.60;6.80;;;;;;;22.52;64.80;97908.56;106766;1276;25443;-77
2023/06/26 07:50:22;;;;;;;11.50;7.00;;;;;;;22.65;62.47;97907.83;106793;1277;22520;-76
2023/06/26 07:52:49;;;;;;;9.40;6.80;;;;;;;22.76;60.36;97913.04;106780;1277;24029;-76
2023/06/26 07:55:16;;;;;;;11.60;7.60;;;;;;;22.76;57.30;97913.03;106798;1276;23416;-77
2023/06/26 07:57:43;;;;;;;8.50;7.10;;;;;;;22.72;57.94;97914.26;106773;1276;22526;-77
2023/06/26 08:00:10;;;;;;;11.30;8.00;;;;;;;22.73;57.96;97912.46;106786;1277;22587;-77
2023/06/26 08:02:42;;;;;;;8.80;6.60;;;;;;;22.81;58.77;97908.45;106766;1277;26513;-76
2023/06/26 08:05:09;;;;;;;9.30;6.30;;;;;;;22.90;58.14;97909.78;106842;1277;25418;-76
2023/06/26 08:07:36;;;;;;;8.90;5.90;;;;;;;22.97;57.26;97906.16;106784;1276;24085;-77
2023/06/26 08:10:03;;;;;;;8.80;7.10;;;;;;;23.00;55.16;97906.20;107252;1277;26644;-77
2023/06/26 08:12:30;;;;;;;6.20;5.30;;;;;;;22.90;54.26;97904.44;107227;1277;22550;-76
2023/06/26 08:14:57;;;;;;;8.00;5.90;;;;;;;22.92;54.38;97904.92;106892;1277;25410;-76
2023/06/26 08:17:23;;;;;;;8.40;6.00;;;;;;;23.06;54.73;97910.09;106932;1277;23931;-77
2023/06/26 08:19:56;;;;;;;7.30;5.70;;;;;;;23.11;52.33;97914.84;106757;1277;22530;-78
2023/06/26 08:22:23;;;;;;;6.30;5.50;;;;;;;22.99;52.59;97915.13;106761;1277;24219;-77
2023/06/26 08:24:50;;;;;;;7.80;6.20;;;;;;;22.84;53.88;97909.02;107089;1277;22524;-77
2023/06/26 08:27:16;;;;;;;15.20;6.20;;;;;;;22.72;53.85;97906.09;106863;1277;22544;-77
2023/06/26 08:29:43;;;;;;;9.80;6.50;;;;;;;22.64;53.48;97906.58;107131;1277;22531;-79
2023/06/26 08:32:10;;;;;;;8.80;5.90;;;;;;;22.57;53.81;97907.52;107095;1277;23513;-77
2023/06/26 08:34:36;;;;;;;8.30;5.70;;;;;;;22.72;55.52;97902.17;107096;1277;25329;-77
2023/06/26 08:37:03;;;;;;;7.00;5.70;;;;;;;23.04;54.35;97906.52;106847;1277;24196;-78
2023/06/26 08:39:31;;;;;;;7.20;6.20;;;;;;;23.29;52.87;97904.13;107019;1277;23308;-81
2023/06/26 08:41:58;;;;;;;6.20;5.40;;;;;;;23.46;52.63;97904.30;107091;1277;24218;-78
2023/06/26 08:44:25;;;;;;;7.40;5.90;;;;;;;23.65;50.76;97902.13;107031;1277;25340;-78
2023/06/26 08:46:52;;;;;;;9.30;5.60;;;;;;;23.77;51.19;97898.53;107011;1276;22576;-76
2023/06/26 08:49:35;;;;;;;7.20;5.40;;;;;;;23.98;51.57;97896.96;106884;1277;22527;-77
2023/06/26 08:52:19;;;;;;;11.30;6.10;;;;;;;24.26;49.70;97904.29;106776;1277;22534;-77
2023/06/26 08:54:50;;;;;;;;;;;;;;;24.22;50.42;97903.24;106805;1277;22568;-77
2023/06/26 08:57:19;;;;;;;8.60;5.70;;;;;;;24.06;48.87;97903.13;107088;1277;25492;-77
2023/06/26 08:59:47;;;;;;;7.30;5.40;;;;;;;23.83;48.01;97900.37;106857;1277;22556;-77
2023/06/26 09:02:15;;;;;;;8.70;5.40;;;;;;;23.53;47.12;97903.58;106832;1277;22749;-77
2023/06/26 09:04:42;;;;;;;9.30;6.20;;;;;;;23.39;47.47;97899.63;107093;1277;23965;-78
2023/06/26 09:07:09;;;;;;;6.70;5.30;;;;;;;23.27;48.85;97899.23;107079;1277;25332;-77
2023/06/26 09:09:36;;;;;;;7.50;5.80;;;;;;;23.51;50.24;97893.11;107061;1276;24208;-77
2023/06/26 09:12:03;;;;;;;7.60;5.20;;;;;;;23.93;50.11;97891.29;107059;1277;22531;-78
2023/06/26 09:14:30;;;;;;;7.60;5.40;;;;;;;24.42;50.53;97890.02;107078;1277;22544;-77
2023/06/26 09:16:56;;;;;;;7.90;5.80;;;;;;;24.95;50.36;97892.28;107072;1277;24065;-77
2023/06/26 09:19:23;;;;;;;8.00;5.90;;;;;;;25.41;49.87;97890.59;106735;1277;22538;-77
2023/06/26 09:21:53;;;;;;;7.10;5.70;;;;;;;25.82;50.27;97886.54;106770;1276;22552;-77
2023/06/26 09:24:21;;;;;;;9.80;5.30;;;;;;;26.12;49.45;97884.77;106807;1277;22639;-77
2023/06/26 09:26:49;;;;;;;8.90;5.20;;;;;;;26.15;47.09;97888.52;106914;1277;25376;-78
2023/06/26 09:29:17;;;;;;;8.00;5.30;;;;;;;25.68;41.96;97889.27;106817;1277;23928;-77
2023/06/26 09:31:44;;;;;;;6.30;5.10;;;;;;;25.10;42.51;97889.36;107064;1277;22541;-78
2023/06/26 09:34:11;;;;;;;9.50;5.60;;;;;;;24.55;42.44;97890.36;107073;1277;22548;-78
2023/06/26 09:36:38;;;;;;;6.50;5.80;;;;;;;24.18;43.09;97893.64;107102;1277;22541;-78
2023/06/26 09:39:10;;;;;;;9.90;5.70;;;;;;;23.89;42.98;97887.95;107031;1265;22540;-77
2023/06/26 09:41:38;;;;;;;6.00;5.30;;;;;;;23.67;43.94;97890.05;107153;1277;22534;-77
2023/06/26 09:44:06;;;;;;;7.70;5.70;;;;;;;23.61;43.45;97890.71;107084;1277;22672;-78
2023/06/26 09:46:33;;;;;;;8.30;6.10;;;;;;;23.59;44.36;97885.45;106781;1277;22538;-77
2023/06/26 09:49:11;;;;;;;7.40;5.80;;;;;;;23.67;45.21;97880.77;107084;1277;25415;-78
2023/06/26 09:51:39;;;;;;;9.40;5.70;;;;;;;23.95;45.92;97882.16;107063;1277;24608;-77
2023/06/26 09:54:06;;;;;;;7.50;6.00;;;;;;;24.42;44.98;97879.79;107135;1256;24324;-78
2023/06/26 09:56:34;;;;;;;6.40;5.70;;;;;;;24.72;43.71;97881.09;107052;1277;25406;-78
2023/06/26 09:59:04;;;;;;;7.00;5.70;;;;;;;24.77;43.57;97881.88;107136;1277;24554;-77
2023/06/26 10:01:31;;;;;;;6.90;5.80;;;;;;;24.62;43.39;97883.67;107109;1277;25503;-77
2023/06/26 10:04:00;;;;;;;9.60;5.50;;;;;;;24.39;42.47;97885.05;107075;1276;22939;-77
2023/06/26 10:06:36;;;;;;;9.50;5.80;;;;;;;24.16;43.07;97883.02;107066;1277;24201;-78
2023/06/26 10:09:04;;;;;;;9.00;5.70;;;;;;;23.96;43.05;97879.34;107083;1277;22747;-79
2023/06/26 10:11:44;;;;;;;6.80;5.60;;;;;;;23.96;43.16;97877.69;107132;1277;23946;-79
2023/06/26 10:14:12;;;;;;;7.20;5.50;;;;;;;24.17;43.38;97874.52;107114;1277;26013;-78
2023/06/26 10:16:48;;;;;;;8.50;5.20;;;;;;;24.49;42.99;97868.71;106510;1277;22534;-78
2023/06/26 10:19:21;;;;;;;10.70;6.50;;;;;;;24.67;41.97;97866.69;106836;1277;22540;-77
2023/06/26 10:21:47;;;;;;;9.70;5.70;;;;;;;24.73;42.05;97865.03;107099;1277;22535;-77
2023/06/26 10:24:14;;;;;;;9.10;6.00;;;;;;;25.04;42.73;97857.70;107047;1277;22610;-78
2023/06/26 10:26:45;;;;;;;8.70;5.60;;;;;;;25.38;41.93;97855.45;107055;1277;22552;-78
2023/06/26 10:29:15;;;;;;;9.00;5.80;;;;;;;25.61;40.78;97851.83;107043;1277;22527;-78
2023/06/26 10:31:50;;;;;;;9.40;6.00;;;;;;;25.87;40.82;97844.96;107076;1277;24431;-77
2023/06/26 10:34:17;;;;;;;8.50;6.20;;;;;;;26.01;40.11;97839.92;107063;1277;22542;-78
2023/06/26 10:36:44;;;;;;;9.60;5.60;;;;;;;26.09;39.67;97832.23;107065;1277;25344;-77
2023/06/26 10:39:10;;;;;;;9.50;5.40;;;;;;;26.35;40.71;97828.20;107147;1276;22580;-78
2023/06/26 10:41:39;;;;;;;11.00;5.90;;;;;;;26.59;40.46;97829.79;107075;1276;22646;-78
2023/06/26 10:44:23;;;;;;;6.90;5.20;;;;;;;26.62;38.30;97828.81;107067;1276;22534;-78
2023/06/26 10:46:52;;;;;;;6.90;5.20;;;;;;;26.66;38.36;97832.10;107057;1276;23501;-78
2023/06/26 10:49:27;;;;;;;9.50;5.50;;;;;;;26.48;37.85;97826.39;107091;1276;25532;-78
2023/06/26 10:51:57;;;;;;;7.10;5.10;;;;;;;26.38;38.93;97826.36;107092;1276;22653;-78
2023/06/26 10:54:30;;;;;;;8.80;5.30;;;;;;;26.37;39.42;97829.92;107027;1276;22665;-78
2023/06/26 10:56:56;;;;;;;8.70;5.40;;;;;;;26.62;38.14;97826.67;107104;1276;22534;-78
2023/06/26 10:59:28;;;;;;;8.40;5.30;;;;;;;26.71;38.29;97825.10;107107;1277;22538;-78
2023/06/26 11:01:57;;;;;;;11.90;5.70;;;;;;;26.87;36.81;97827.49;107145;1276;25502;-78
2023/06/26 11:04:49;;;;;;;8.50;5.30;;;;;;;26.92;37.36;97826.89;107049;1276;22629;-77
2023/06/26 11:07:23;;;;;;;7.80;5.50;;;;;;;26.70;38.02;97827.88;106813;1276;22664;-78
2023/06/26 11:10:09;;;;;;;8.00;5.60;;;;;;;26.45;37.57;97826.47;107007;1276;24250;-78
2023/06/26 11:12:42;;;;;;;10.40;6.00;;;;;;;26.17;38.24;97830.92;106790;1277;22527;-77
2023/06/26 11:15:12;;;;;;;11.80;5.70;;;;;;;26.01;37.99;97826.60;107030;1277;24243;-77
2023/06/26 11:17:41;;;;;;;7.30;4.90;;;;;;;25.84;38.22;97826.37;106799;1276;23961;-78
2023/06/26 11:20:09;;;;;;;7.90;4.70;;;;;;;25.63;38.39;97827.39;107083;1276;24119;-77